.
WxDataArchive / Data Records for 2006-02-08
2006-02-07 February 2006 2006-02-09

Data Records for Wednesday, 08 February 2006

Time	Temp	Chill	HIndex	Humid	Dewpt	 Wind 	HiWind	WindDir	Rain 	Barom 
-----	----	-----	------	-----	-----	------	------	-------	-----	----- 
00:00	24.8	24.8	24.8	70	16.4	0	2	270	0.00	30.128 
00:05	24.8	24.8	24.8	70	16.4	0	1	270	0.00	30.128 
00:10	24.8	24.8	24.8	70	16.4	0	1	270	0.00	30.128 
00:15	24.8	24.8	24.8	70	16.4	0	2	270	0.00	30.131 
00:20	24.8	24.8	24.8	70	16.4	0	1	270	0.00	30.131 
00:25	24.7	24.7	24.7	71	16.7	0	1	270	0.00	30.131 
00:30	24.7	24.7	24.7	70	16.3	0	1	270	0.00	30.129 
00:35	24.7	24.7	24.7	71	16.7	0	0	---	0.00	30.129 
00:40	24.7	24.7	24.7	71	16.7	0	1	270	0.00	30.129 
00:45	24.7	24.7	24.7	71	16.7	0	1	270	0.00	30.128 
00:50	24.7	24.7	24.7	71	16.7	0	1	270	0.00	30.128 
00:55	24.7	24.7	24.7	71	16.7	0	1	270	0.00	30.128 
01:00	24.7	24.7	24.7	71	16.7	0	1	270	0.00	30.124 
01:05	24.7	24.7	24.7	71	16.7	0	2	270	0.00	30.124 
01:10	24.5	24.5	24.5	72	16.8	0	1	270	0.00	30.124 
01:15	24.5	24.5	24.5	72	16.8	0	1	270	0.00	30.121 
01:20	24.5	24.5	24.5	72	16.8	0	1	270	0.00	30.121 
01:25	24.5	24.5	24.5	72	16.8	0	1	270	0.00	30.121 
01:30	24.5	24.5	24.5	72	16.8	0	1	270	0.00	30.118 
01:35	24.5	24.5	24.5	72	16.8	0	2	248	0.00	30.118 
01:40	24.5	24.5	24.5	73	17.1	0	1	248	0.00	30.118 
01:45	24.5	24.5	24.5	72	16.8	0	2	248	0.00	30.118 
01:50	24.5	24.5	24.5	72	16.8	0	1	248	0.00	30.118 
01:55	24.5	24.5	24.5	73	17.1	0	1	248	0.00	30.118 
02:00	24.5	24.5	24.5	73	17.1	0	1	248	0.00	30.118 
02:05	24.5	24.5	24.5	73	17.1	0	1	248	0.00	30.118 
02:10	24.5	24.5	24.5	73	17.1	0	0	---	0.00	30.118 
02:15	24.5	24.5	24.5	73	17.1	0	1	248	0.00	30.120 
02:20	24.5	24.5	24.5	73	17.1	0	1	248	0.00	30.120 
02:25	24.5	24.5	24.5	73	17.1	0	1	248	0.00	30.120 
02:30	24.5	24.5	24.5	72	16.8	0	1	248	0.00	30.126 
02:35	24.7	24.7	24.7	72	17.0	0	1	248	0.00	30.126 
02:40	24.7	24.7	24.7	72	17.0	0	2	248	0.00	30.126 
02:45	24.7	24.7	24.7	72	17.0	0	2	248	0.00	30.126 
02:50	24.7	24.7	24.7	72	17.0	0	1	248	0.00	30.126 
02:55	24.5	24.5	24.5	73	17.1	0	1	248	0.00	30.126 
03:00	24.5	24.5	24.5	73	17.1	0	2	248	0.00	30.125 
03:05	24.5	24.5	24.5	73	17.1	0	2	248	0.00	30.125 
03:10	24.5	24.5	24.5	73	17.1	0	1	248	0.00	30.125 
03:15	24.5	24.5	24.5	73	17.1	0	2	248	0.00	30.124 
03:20	24.5	24.5	24.5	73	17.1	0	1	248	0.00	30.124 
03:25	24.4	24.4	24.4	73	17.0	0	1	248	0.00	30.124 
03:30	24.4	24.4	24.4	74	17.3	0	0	---	0.00	30.120 
03:35	24.4	24.4	24.4	74	17.3	0	1	248	0.00	30.120 
03:40	24.4	24.4	24.4	74	17.3	0	1	248	0.00	30.120 
03:45	24.4	24.4	24.4	74	17.3	0	2	248	0.00	30.119 
03:50	24.4	24.4	24.4	74	17.3	0	1	248	0.00	30.119 
03:55	24.4	24.4	24.4	74	17.3	0	2	248	0.00	30.119 
04:00	24.4	24.4	24.4	74	17.3	0	1	248	0.00	30.118 
04:05	24.4	24.4	24.4	74	17.3	0	1	248	0.00	30.118 
04:10	24.2	24.2	24.2	74	17.1	0	1	248	0.00	30.118 
04:15	24.2	24.2	24.2	75	17.4	0	0	---	0.00	30.116 
04:20	24.2	24.2	24.2	75	17.4	0	0	---	0.00	30.116 
04:25	24.2	24.2	24.2	75	17.4	0	1	248	0.00	30.116 
04:30	24.2	24.2	24.2	75	17.4	0	1	248	0.00	30.115 
04:35	24.2	24.2	24.2	75	17.4	0	1	248	0.00	30.115 
04:40	24.2	24.2	24.2	75	17.4	0	0	---	0.00	30.115 
04:45	24.2	24.2	24.2	75	17.4	0	0	---	0.00	30.117 
04:50	24.1	24.1	24.1	75	17.3	0	0	---	0.00	30.117 
04:55	24.1	24.1	24.1	75	17.3	0	0	---	0.00	30.117 
05:00	24.1	24.1	24.1	75	17.3	0	1	248	0.00	30.117 
05:05	24.1	24.1	24.1	75	17.3	0	0	---	0.00	30.117 
05:10	24.1	24.1	24.1	75	17.3	0	1	248	0.00	30.117 
05:15	24.1	24.1	24.1	75	17.3	0	0	---	0.00	30.120 
05:20	24.1	24.1	24.1	75	17.3	0	0	---	0.00	30.120 
05:25	24.1	24.1	24.1	75	17.3	0	0	---	0.00	30.120 
05:30	23.9	23.9	23.9	75	17.2	0	1	248	0.00	30.120 
05:35	23.9	23.9	23.9	75	17.2	0	1	248	0.00	30.120 
05:40	23.9	23.9	23.9	76	17.5	0	0	---	0.00	30.120 
05:45	23.9	23.9	23.9	75	17.2	0	1	248	0.00	30.123 
05:50	23.9	23.9	23.9	75	17.2	0	0	---	0.00	30.123 
05:55	23.9	23.9	23.9	75	17.2	0	0	---	0.00	30.123 
06:00	23.8	23.8	23.8	75	17.1	0	0	---	0.00	30.125 
06:05	23.8	23.8	23.8	76	17.4	0	0	---	0.00	30.125 
06:10	23.6	23.6	23.6	76	17.2	0	0	---	0.00	30.125 
06:15	23.6	23.6	23.6	76	17.2	0	0	---	0.00	30.124 
06:20	23.5	23.5	23.5	77	17.4	0	0	---	0.00	30.124 
06:25	23.5	23.5	23.5	77	17.4	0	0	---	0.00	30.124 
06:30	23.3	23.3	23.3	77	17.2	0	0	---	0.00	30.124 
06:35	23.3	23.3	23.3	77	17.2	0	0	---	0.00	30.124 
06:40	23.2	23.2	23.2	78	17.4	0	0	---	0.00	30.124 
06:45	23.0	23.0	23.0	78	17.2	0	0	---	0.00	30.124 
06:50	23.0	23.0	23.0	78	17.2	0	0	---	0.00	30.124 
06:55	23.0	23.0	23.0	78	17.2	0	0	---	0.00	30.124 
07:00	23.0	23.0	23.0	78	17.2	0	0	---	0.00	30.125 
07:05	23.2	23.2	23.2	78	17.4	0	1	248	0.00	30.125 
07:10	23.3	23.3	23.3	78	17.5	0	0	---	0.00	30.125 
07:15	23.3	23.3	23.3	77	17.2	0	0	---	0.00	30.126 
07:20	23.3	23.3	23.3	77	17.2	0	0	---	0.00	30.126 
07:25	23.3	23.3	23.3	77	17.2	0	0	---	0.00	30.126 
07:30	23.3	23.3	23.3	77	17.2	0	0	---	0.00	30.131 
07:35	23.5	23.5	23.5	77	17.4	0	0	---	0.00	30.131 
07:40	23.5	23.5	23.5	78	17.7	0	1	248	0.00	30.131 
07:45	23.5	23.5	23.5	77	17.4	0	2	225	0.00	30.130 
07:50	23.6	23.6	23.6	77	17.5	0	2	225	0.00	30.130 
07:55	23.6	23.6	23.6	77	17.5	0	1	225	0.00	30.130 
08:00	23.8	23.8	23.8	77	17.7	0	1	225	0.00	30.134 
08:05	23.8	23.8	23.8	77	17.7	0	2	22	0.00	30.134 
08:10	23.8	23.8	23.8	77	17.7	0	2	22	0.00	30.134 
08:15	23.9	23.9	23.9	76	17.5	0	1	22	0.00	30.139 
08:20	23.9	23.9	23.9	75	17.2	0	1	22	0.00	30.139 
08:25	23.9	23.9	23.9	75	17.2	0	0	---	0.00	30.139 
08:30	23.9	23.9	23.9	75	17.2	0	2	22	0.00	30.141 
08:35	24.1	24.1	24.1	73	16.7	0	2	22	0.00	30.141 
08:40	24.1	24.1	24.1	73	16.7	0	2	22	0.00	30.141 
08:45	24.2	24.2	24.2	72	16.5	1	2	22	0.00	30.143 
08:50	24.2	24.2	24.2	72	16.5	0	2	45	0.00	30.143 
08:55	24.4	24.4	24.4	71	16.4	0	1	45	0.00	30.143 
09:00	24.4	24.4	24.4	70	16.0	0	1	45	0.00	30.146 
09:05	24.5	24.5	24.5	67	15.1	0	2	45	0.00	30.146 
09:10	24.7	24.7	24.7	67	15.3	0	2	45	0.00	30.146 
09:15	24.7	24.7	24.7	67	15.3	1	2	45	0.00	30.150 
09:20	24.8	24.8	24.8	66	15.1	0	1	45	0.00	30.150 
09:25	25.1	25.1	25.1	65	15.0	0	1	45	0.00	30.150 
09:30	25.3	25.3	25.3	64	14.9	0	1	45	0.00	30.148 
09:35	25.6	25.6	25.6	64	15.1	0	1	45	0.00	30.148 
09:40	25.7	25.7	25.7	64	15.2	0	1	45	0.00	30.148 
09:45	25.8	25.8	25.8	62	14.6	0	2	45	0.00	30.149 
09:50	25.8	25.8	25.8	63	15.0	0	2	45	0.00	30.149 
09:55	25.7	25.7	25.7	64	15.2	1	2	45	0.00	30.149 
10:00	25.7	25.7	25.7	64	15.2	0	1	45	0.00	30.150 
10:05	25.8	25.8	25.8	62	14.6	1	2	45	0.00	30.150 
10:10	25.7	25.7	25.7	63	14.9	1	2	45	0.00	30.150 
10:15	25.6	25.6	25.6	64	15.1	1	2	45	0.00	30.151 
10:20	26.0	26.0	26.0	64	15.5	0	2	45	0.00	30.151 
10:25	26.4	26.4	26.4	64	15.9	0	2	45	0.00	30.151 
10:30	26.9	26.9	26.9	62	15.6	0	2	45	0.00	30.150 
10:35	27.0	27.0	27.0	61	15.4	1	2	45	0.00	30.150 
10:40	26.7	26.7	26.7	62	15.5	1	2	45	0.00	30.150 
10:45	26.7	26.7	26.7	62	15.5	0	1	45	0.00	30.151 
10:50	27.0	27.0	27.0	62	15.7	0	1	45	0.00	30.151 
10:55	27.5	27.5	27.5	64	16.9	0	2	22	0.00	30.151 
11:00	27.3	27.3	27.3	62	16.0	0	2	22	0.00	30.150 
11:05	27.0	27.0	27.0	62	15.7	1	2	338	0.00	30.150 
11:10	27.0	27.0	27.0	62	15.7	0	2	338	0.00	30.150 
11:15	27.5	27.5	27.5	62	16.2	1	2	338	0.00	30.150 
11:20	27.3	27.3	27.3	63	16.4	1	3	22	0.00	30.150 
11:25	27.6	27.6	27.6	63	16.7	1	2	22	0.00	30.150 
11:30	27.8	27.8	27.8	62	16.5	1	3	248	0.00	30.149 
11:35	27.9	27.9	27.9	62	16.6	1	3	248	0.00	30.149 
11:40	28.1	28.1	28.1	62	16.8	1	2	248	0.00	30.149 
11:45	27.9	27.9	27.9	61	16.2	0	2	248	0.00	30.150 
11:50	27.8	27.8	27.8	62	16.5	1	2	248	0.00	30.150 
11:55	27.9	27.9	27.9	63	17.0	1	3	248	0.00	30.150 
12:00	28.4	28.4	28.4	64	17.8	1	2	248	0.00	30.146 
12:05	28.7	28.7	28.7	64	18.1	1	3	248	0.00	30.146 
12:10	28.8	28.8	28.8	63	17.8	0	3	248	0.00	30.146 
12:15	29.3	29.3	29.3	64	18.7	0	2	248	0.00	30.139 
12:20	29.4	29.4	29.4	59	16.9	1	3	248	0.00	30.139 
12:25	29.1	29.1	29.1	60	17.0	1	5	248	0.00	30.139 
12:30	28.8	28.8	28.8	59	16.3	0	2	248	0.00	30.134 
12:35	28.7	28.7	28.7	60	16.6	1	2	248	0.00	30.134 
12:40	28.8	28.8	28.8	62	17.4	1	4	248	0.00	30.134 
12:45	29.0	29.0	29.0	61	17.3	1	4	248	0.00	30.132 
12:50	29.1	29.1	29.1	59	16.6	1	4	248	0.00	30.132 
12:55	29.7	29.7	29.7	59	17.1	1	3	248	0.00	30.132 
13:00	29.8	29.8	29.8	57	16.4	1	3	315	0.00	30.131 
13:05	29.7	29.7	29.7	57	16.4	1	4	315	0.00	30.131 
13:10	29.4	29.4	29.4	60	17.3	1	2	112	0.00	30.131 
13:15	29.7	29.7	29.7	58	16.8	1	3	248	0.00	30.131 
13:20	29.7	29.7	29.7	56	15.9	1	4	248	0.00	30.131 
13:25	29.5	29.5	29.5	56	15.8	1	2	338	0.00	30.131 
13:30	29.5	29.5	29.5	56	15.8	1	3	338	0.00	30.131 
13:35	29.4	29.4	29.4	56	15.7	1	2	338	0.00	30.131 
13:40	29.4	29.4	29.4	56	15.7	0	2	315	0.00	30.131 
13:45	29.4	29.4	29.4	58	16.5	1	4	338	0.00	30.130 
13:50	29.5	29.5	29.5	55	15.3	1	2	338	0.00	30.130 
13:55	29.7	29.7	29.7	58	16.8	1	2	338	0.00	30.130 
14:00	30.0	30.0	30.0	60	17.8	1	2	315	0.00	30.127 
14:05	30.1	30.1	30.1	56	16.3	1	3	248	0.01	30.127 
14:10	30.0	30.0	30.0	55	15.8	1	5	248	0.00	30.127 
14:15	29.7	29.7	29.7	58	16.8	1	3	315	0.00	30.123 
14:20	29.8	29.8	29.8	58	16.8	1	2	292	0.00	30.123 
14:25	29.8	29.8	29.8	60	17.6	1	2	292	0.00	30.123 
14:30	30.0	30.0	30.0	58	17.0	1	4	270	0.00	30.123 
14:35	29.7	29.7	29.7	60	17.5	1	2	248	0.00	30.123 
14:40	29.7	29.7	29.7	59	17.1	1	4	248	0.00	30.123 
14:45	29.8	29.8	29.8	57	16.4	1	4	248	0.00	30.121 
14:50	30.0	30.0	30.0	58	17.0	1	4	248	0.00	30.121 
14:55	30.0	30.0	30.0	60	17.8	1	3	292	0.00	30.121 
15:00	30.0	30.0	30.0	60	17.8	1	4	292	0.00	30.122 
15:05	29.7	29.7	29.7	57	16.4	1	2	292	0.00	30.122 
15:10	29.7	29.7	29.7	58	16.8	0	2	292	0.00	30.122 
15:15	29.4	29.4	29.4	58	16.5	1	3	292	0.00	30.124 
15:20	29.1	29.1	29.1	60	17.0	1	3	0	0.00	30.124 
15:25	29.1	29.1	29.1	59	16.6	0	3	0	0.00	30.124 
15:30	29.3	29.3	29.3	62	17.9	0	2	0	0.00	30.127 
15:35	29.5	29.5	29.5	61	17.7	1	5	292	0.00	30.127 
15:40	29.5	29.5	29.5	61	17.7	1	3	0	0.00	30.127 
15:45	29.7	29.7	29.7	61	17.9	1	2	0	0.00	30.127 
15:50	29.5	29.5	29.5	61	17.7	1	2	0	0.00	30.127 
15:55	29.5	29.5	29.5	62	18.1	1	3	292	0.00	30.127 
16:00	29.1	29.1	29.1	61	17.4	1	3	0	0.00	30.131 
16:05	28.5	28.5	28.5	62	17.2	1	3	0	0.00	30.131 
16:10	28.5	28.5	28.5	62	17.2	0	2	0	0.00	30.131 
16:15	28.5	28.5	28.5	61	16.8	0	2	292	0.00	30.131 
16:20	28.4	28.4	28.4	62	17.1	1	4	292	0.00	30.131 
16:25	28.4	28.4	28.4	64	17.8	1	3	315	0.00	30.131 
16:30	28.2	28.2	28.2	65	18.0	1	3	45	0.00	30.133 
16:35	28.1	28.1	28.1	67	18.6	1	3	45	0.00	30.133 
16:40	27.8	27.8	27.8	68	18.6	1	3	68	0.00	30.133 
16:45	27.6	27.6	27.6	69	18.8	1	3	68	0.00	30.134 
16:50	27.5	27.5	27.5	70	19.0	1	3	90	0.00	30.134 
16:55	27.3	27.3	27.3	71	19.2	0	2	90	0.00	30.134 
17:00	27.2	27.2	27.2	70	18.7	0	3	90	0.00	30.137 
17:05	27.0	27.0	27.0	70	18.5	1	3	68	0.00	30.137 
17:10	26.9	26.9	26.9	69	18.1	1	3	68	0.00	30.137 
17:15	26.9	26.9	26.9	69	18.1	0	3	45	0.00	30.136 
17:20	26.9	26.9	26.9	67	17.4	0	3	45	0.00	30.136 
17:25	27.0	27.0	27.0	66	17.2	1	3	68	0.00	30.136 
17:30	27.0	27.0	27.0	65	16.8	1	4	90	0.00	30.136 
17:35	27.0	27.0	27.0	63	16.1	1	4	68	0.00	30.136 
17:40	27.0	27.0	27.0	65	16.8	0	1	45	0.00	30.136 
17:45	27.0	27.0	27.0	65	16.8	0	2	45	0.00	30.137 
17:50	26.9	26.9	26.9	63	16.0	0	2	45	0.00	30.137 
17:55	26.7	26.7	26.7	64	16.2	0	1	90	0.00	30.137 
18:00	26.6	26.6	26.6	64	16.1	0	2	90	0.00	30.141 
18:05	26.4	26.4	26.4	64	15.9	0	1	90	0.00	30.141 
18:10	26.3	26.3	26.3	64	15.8	0	1	90	0.00	30.141 
18:15	26.3	26.3	26.3	65	16.2	0	2	68	0.00	30.150 
18:20	26.3	26.3	26.3	67	16.9	1	3	68	0.00	30.150 
18:25	26.3	26.3	26.3	67	16.9	0	3	22	0.00	30.150 
18:30	26.3	26.3	26.3	68	17.2	1	2	22	0.00	30.156 
18:35	26.1	26.1	26.1	68	17.0	1	3	22	0.00	30.156 
18:40	26.1	26.1	26.1	67	16.7	0	2	68	0.00	30.156 
18:45	26.1	26.1	26.1	67	16.7	0	2	68	0.00	30.158 
18:50	26.1	26.1	26.1	66	16.3	0	2	22	0.00	30.158 
18:55	26.1	26.1	26.1	67	16.7	1	4	90	0.00	30.158 
19:00	26.0	26.0	26.0	67	16.6	1	4	22	0.00	30.166 
19:05	26.0	26.0	26.0	68	16.9	1	3	0	0.00	30.166 
19:10	25.8	25.8	25.8	67	16.4	1	7	45	0.00	30.166 
19:15	25.7	25.7	25.7	66	15.9	1	3	45	0.00	30.170 
19:20	25.6	25.6	25.6	65	15.5	2	5	112	0.00	30.170 
19:25	25.6	25.6	25.6	64	15.1	1	4	68	0.00	30.170 
19:30	25.4	25.4	25.4	64	14.9	1	4	45	0.00	30.172 
19:35	25.4	25.4	25.4	62	14.2	1	3	0	0.00	30.172 
19:40	25.4	25.4	25.4	63	14.6	0	1	45	0.00	30.172 
19:45	25.4	25.4	25.4	62	14.2	1	3	90	0.00	30.172 
19:50	25.4	25.4	25.4	62	14.2	1	3	45	0.00	30.172 
19:55	25.4	25.4	25.4	60	13.5	1	3	0	0.00	30.172 
20:00	25.4	25.4	25.4	62	14.2	0	2	315	0.00	30.177 
20:05	25.3	25.3	25.3	61	13.8	1	2	0	0.00	30.177 
20:10	25.3	25.3	25.3	61	13.8	1	3	22	0.00	30.177 
20:15	25.1	25.1	25.1	63	14.3	0	2	22	0.00	30.185 
20:20	25.0	25.0	25.0	62	13.8	0	3	292	0.00	30.185 
20:25	24.8	24.8	24.8	63	14.0	0	2	338	0.00	30.185 
20:30	24.7	24.7	24.7	63	13.9	0	2	22	0.00	30.187 
20:35	24.5	24.5	24.5	63	13.7	1	4	22	0.00	30.187 
20:40	24.4	24.4	24.4	64	14.0	1	4	45	0.00	30.187 
20:45	24.2	24.2	24.2	65	14.2	0	3	22	0.00	30.196 
20:50	24.1	24.1	24.1	65	14.1	0	2	22	0.00	30.196 
20:55	24.1	24.1	24.1	65	14.1	1	3	0	0.00	30.196 
21:00	24.2	24.2	24.2	65	14.2	0	2	22	0.00	30.201 
21:05	24.1	24.1	24.1	65	14.1	0	2	22	0.00	30.201 
21:10	24.1	24.1	24.1	66	14.4	0	2	45	0.00	30.201 
21:15	24.1	24.1	24.1	65	14.1	0	3	45	0.00	30.198 
21:20	23.9	23.9	23.9	64	13.5	1	3	45	0.00	30.198 
21:25	23.6	23.6	23.6	64	13.2	1	9	0	0.00	30.198 
21:30	23.5	23.5	23.5	65	13.5	0	4	338	0.00	30.201 
21:35	23.2	23.2	23.2	66	13.6	0	1	338	0.00	30.201 
21:40	22.9	22.9	22.9	66	13.3	1	4	45	0.00	30.201 
21:45	22.7	22.7	22.7	66	13.1	0	4	22	0.00	30.205 
21:50	22.5	22.5	22.5	67	13.2	0	2	22	0.00	30.205 
21:55	22.2	22.2	22.2	67	12.9	0	2	22	0.00	30.205 
22:00	22.1	22.1	22.1	68	13.2	0	1	22	0.00	30.213 
22:05	21.8	21.8	21.8	68	12.9	0	2	0	0.00	30.213 
22:10	21.6	21.6	21.6	69	13.0	0	2	0	0.00	30.213 
22:15	21.6	21.6	21.6	69	13.0	1	2	292	0.00	30.217 
22:20	21.6	21.6	21.6	69	13.0	0	1	292	0.00	30.217 
22:25	21.4	21.4	21.4	70	13.2	1	2	0	0.00	30.217 
22:30	21.3	21.3	21.3	70	13.1	0	2	22	0.00	30.217 
22:35	21.1	21.1	21.1	70	12.9	0	2	22	0.00	30.217 
22:40	21.1	21.1	21.1	71	13.2	0	2	22	0.00	30.217 
22:45	21.0	21.0	21.0	71	13.1	0	1	22	0.00	30.217 
22:50	20.8	20.8	20.8	72	13.2	0	1	22	0.00	30.217 
22:55	20.6	20.6	20.6	72	13.0	0	2	22	0.00	30.217 
23:00	20.5	20.5	20.5	72	12.9	0	2	22	0.00	30.220 
23:05	20.5	20.5	20.5	73	13.2	0	2	0	0.00	30.220 
23:10	20.5	20.5	20.5	73	13.2	0	2	0	0.00	30.220 
23:15	20.3	20.3	20.3	73	13.1	0	1	0	0.00	30.221 
23:20	20.3	20.3	20.3	74	13.4	0	2	22	0.00	30.221 
23:25	20.2	20.2	20.2	74	13.3	0	2	22	0.00	30.221 
23:30	20.0	20.0	20.0	74	13.1	0	1	22	0.00	30.221 
23:35	19.9	19.9	19.9	75	13.3	0	2	22	0.00	30.221 
23:40	19.7	19.7	19.7	75	13.1	0	1	22	0.00	30.221 
23:45	19.4	19.4	19.4	75	12.8	0	1	22	0.00	30.221 
23:50	19.2	19.2	19.2	76	12.9	0	0	---	0.00	30.221 
23:55	19.1	19.1	19.1	76	12.8	0	1	22	0.00	30.221 

CoCoRaHS
IN-AL-39
A2 Web Hosting
Creative Commons License
GoDaddy
Look for:

loaded 2017-10-19 14:36:30 • last modified 2010-11-18 10:43:29
Privacy PolicyDisclaimer
• wx.awcolley.com is powered by PmWiki v.2002016 •
• all content (unless otherwise noted) © 2017 A W Colley